createdAt,value
2023-02-11T00:00:40.578Z,28.67
2023-02-11T00:03:08.312Z,26.00
2023-02-11T00:05:36.001Z,28.13
2023-02-11T00:08:03.662Z,27.03
2023-02-11T00:10:31.503Z,28.43
2023-02-11T00:13:00.565Z,27.03
2023-02-11T00:15:28.269Z,27.50
2023-02-11T00:17:55.948Z,28.73
2023-02-11T00:20:23.649Z,27.20
2023-02-11T00:22:51.376Z,27.60
2023-02-11T00:25:19.085Z,29.43
2023-02-11T00:27:46.766Z,28.13
2023-02-11T00:30:16.494Z,28.53
2023-02-11T00:32:44.192Z,28.63
2023-02-11T00:35:11.873Z,29.00
2023-02-11T00:37:39.601Z,31.00
2023-02-11T00:40:08.265Z,29.60
2023-02-11T00:42:37.493Z,29.00
2023-02-11T00:45:05.858Z,28.77
2023-02-11T00:47:34.875Z,30.23
2023-02-11T00:50:04.623Z,28.63
2023-02-11T00:52:32.490Z,31.47
2023-02-11T00:55:00.154Z,29.63
2023-02-11T00:57:27.905Z,29.40
2023-02-11T00:59:56.198Z,29.87
2023-02-11T01:02:23.894Z,28.60
2023-02-11T01:04:53.069Z,27.13
2023-02-11T01:07:20.768Z,30.97
2023-02-11T01:09:48.441Z,30.13
2023-02-11T01:12:16.267Z,28.47
2023-02-11T01:14:44.024Z,29.83
2023-02-11T01:17:11.903Z,28.40
2023-02-11T01:19:39.808Z,29.00
2023-02-11T01:22:08.870Z,30.27
2023-02-11T01:24:36.631Z,28.07
2023-02-11T01:27:04.480Z,29.53
2023-02-11T01:29:32.160Z,30.20
2023-02-11T01:32:01.291Z,27.70
2023-02-11T01:34:29.438Z,31.40
2023-02-11T01:36:59.823Z,28.77
2023-02-11T01:39:29.141Z,27.67
2023-02-11T01:41:56.878Z,28.37
2023-02-11T01:44:27.594Z,30.93
2023-02-11T01:46:56.380Z,28.10
2023-02-11T01:49:27.744Z,29.93
2023-02-11T01:52:00.001Z,28.87
2023-02-11T01:54:51.002Z,28.67
2023-02-11T01:57:28.888Z,29.10
2023-02-11T02:00:06.320Z,28.70
2023-02-11T02:02:38.360Z,28.57
2023-02-11T02:05:15.416Z,29.27
2023-02-11T02:07:50.746Z,28.20
2023-02-11T02:10:24.253Z,27.57
2023-02-11T02:12:52.035Z,26.63
2023-02-11T02:15:26.230Z,26.93
2023-02-11T02:18:00.158Z,27.43
2023-02-11T02:21:00.263Z,26.47
2023-02-11T02:23:36.768Z,27.20
2023-02-11T02:26:36.618Z,27.03
2023-02-11T02:29:32.298Z,24.43
2023-02-11T02:32:23.390Z,25.47
2023-02-11T02:34:55.136Z,27.20
2023-02-11T02:37:29.543Z,25.97
2023-02-11T02:40:00.745Z,25.27
2023-02-11T02:42:29.144Z,25.17
2023-02-11T02:44:57.637Z,25.17
2023-02-11T02:47:26.698Z,25.37
2023-02-11T02:49:54.422Z,25.37
2023-02-11T02:52:34.668Z,24.10
2023-02-11T02:55:17.120Z,23.07
2023-02-11T02:58:02.818Z,24.63
2023-02-11T03:00:35.814Z,25.27
2023-02-11T03:03:17.752Z,24.30
2023-02-11T03:05:54.082Z,22.40
2023-02-11T03:08:29.895Z,25.47
2023-02-11T03:10:59.093Z,25.93
2023-02-11T03:13:33.437Z,24.33
2023-02-11T03:16:08.299Z,24.80
2023-02-11T03:18:40.758Z,22.83
2023-02-11T03:21:10.982Z,22.13
2023-02-11T03:23:42.762Z,22.47
2023-02-11T03:26:15.546Z,24.17
2023-02-11T03:28:50.339Z,23.07
2023-02-11T03:31:26.913Z,22.60
2023-02-11T03:34:02.294Z,20.67
2023-02-11T03:36:36.794Z,21.13
2023-02-11T03:39:06.711Z,23.83
2023-02-11T03:41:37.295Z,20.33
2023-02-11T03:44:07.105Z,19.23
2023-02-11T03:46:38.760Z,19.97
2023-02-11T03:49:13.396Z,18.73
2023-02-11T03:51:42.012Z,19.57
2023-02-11T03:54:15.171Z,18.00
2023-02-11T03:56:49.503Z,18.93
2023-02-11T03:59:17.154Z,17.47
2023-02-11T04:01:44.933Z,17.83
2023-02-11T04:04:14.389Z,18.43
2023-02-11T04:06:42.205Z,17.40
2023-02-11T04:09:10.352Z,18.40
2023-02-11T04:11:38.048Z,17.60
2023-02-11T04:14:05.809Z,18.87
2023-02-11T04:16:33.670Z,18.13
2023-02-11T04:19:01.690Z,18.27
2023-02-11T04:21:30.752Z,17.80
2023-02-11T04:23:58.491Z,17.17
2023-02-11T04:26:26.286Z,16.77
2023-02-11T04:28:53.964Z,17.43
2023-02-11T04:31:21.692Z,16.60
2023-02-11T04:33:49.442Z,15.53
2023-02-11T04:36:17.143Z,15.83
2023-02-11T04:38:46.204Z,17.33
2023-02-11T04:41:13.891Z,16.00
2023-02-11T04:43:41.582Z,16.53
2023-02-11T04:46:09.312Z,16.43
2023-02-11T04:48:37.088Z,16.50
2023-02-11T04:51:05.147Z,16.77
2023-02-11T04:53:32.946Z,16.23
2023-02-11T04:56:02.068Z,15.50
2023-02-11T04:58:29.709Z,16.13
2023-02-11T05:00:57.457Z,17.10
2023-02-11T05:03:25.147Z,16.00
2023-02-11T05:05:53.163Z,15.50
2023-02-11T05:08:21.011Z,15.43
2023-02-11T05:10:49.047Z,15.23
2023-02-11T05:13:18.094Z,14.83
2023-02-11T05:15:45.753Z,15.27
2023-02-11T05:18:14.878Z,17.20
2023-02-11T05:20:42.972Z,15.57
2023-02-11T05:23:10.858Z,16.10
2023-02-11T05:25:38.858Z,14.97
2023-02-11T05:28:07.099Z,16.13
2023-02-11T05:30:36.190Z,15.77
2023-02-11T05:33:03.883Z,14.87
2023-02-11T05:35:31.576Z,15.50
2023-02-11T05:37:59.294Z,15.10
2023-02-11T05:40:27.024Z,15.20
2023-02-11T05:42:54.758Z,15.83
2023-02-11T05:45:22.538Z,15.17
2023-02-11T05:47:51.569Z,16.03
2023-02-11T05:50:19.796Z,14.70
2023-02-11T05:52:47.539Z,14.97
2023-02-11T05:55:15.313Z,15.10
2023-02-11T05:57:42.991Z,16.30
2023-02-11T06:00:12.402Z,15.27
2023-02-11T06:02:40.222Z,14.53
2023-02-11T06:05:10.149Z,16.73
2023-02-11T06:07:37.884Z,15.80
2023-02-11T06:10:06.465Z,16.87
2023-02-11T06:12:34.323Z,15.93
2023-02-11T06:15:02.131Z,17.20
2023-02-11T06:17:31.703Z,16.97
2023-02-11T06:19:59.408Z,16.17
2023-02-11T06:22:28.626Z,15.27
2023-02-11T06:25:01.679Z,16.23
2023-02-11T06:27:30.117Z,16.23
2023-02-11T06:29:57.972Z,16.93
2023-02-11T06:32:43.011Z,17.67
2023-02-11T06:35:12.575Z,16.10
2023-02-11T06:37:42.407Z,16.20
2023-02-11T06:40:12.056Z,15.57
2023-02-11T06:42:39.841Z,15.27
2023-02-11T06:45:09.323Z,16.10
2023-02-11T06:47:37.117Z,15.80
2023-02-11T06:50:05.858Z,15.53
2023-02-11T06:52:34.056Z,15.47
2023-02-11T06:55:03.099Z,17.57
2023-02-11T06:57:31.749Z,15.37
2023-02-11T06:59:59.462Z,15.97
2023-02-11T07:02:27.377Z,14.90
2023-02-11T07:04:55.145Z,15.97
2023-02-11T07:07:22.908Z,15.93
2023-02-11T07:09:50.763Z,15.27
2023-02-11T07:12:19.892Z,15.53
2023-02-11T07:14:47.573Z,15.83
2023-02-11T07:17:15.406Z,16.43
2023-02-11T07:19:43.363Z,14.53
2023-02-11T07:22:11.099Z,15.37
2023-02-11T07:24:38.744Z,15.23
2023-02-11T07:27:06.670Z,15.23
2023-02-11T07:29:35.826Z,15.47
2023-02-11T07:32:03.586Z,17.03
2023-02-11T07:34:31.388Z,15.60
2023-02-11T07:36:59.140Z,16.33
2023-02-11T07:39:27.483Z,15.30
2023-02-11T07:41:55.644Z,16.87
2023-02-11T07:44:24.603Z,16.70
2023-02-11T07:46:53.930Z,16.53
2023-02-11T07:49:21.690Z,16.17
2023-02-11T07:51:51.182Z,17.47
2023-02-11T07:54:19.248Z,15.53
2023-02-11T07:56:47.000Z,15.50
2023-02-11T07:59:14.791Z,15.87
2023-02-11T08:01:42.536Z,17.37
2023-02-11T08:04:11.579Z,17.17
2023-02-11T08:06:43.213Z,16.30
2023-02-11T08:09:14.906Z,15.77
2023-02-11T08:11:42.621Z,16.10
2023-02-11T08:14:11.026Z,16.73
2023-02-11T08:16:39.916Z,17.07
2023-02-11T08:19:09.494Z,16.77
2023-02-11T08:21:39.314Z,15.70
2023-02-11T08:24:08.226Z,16.30
2023-02-11T08:26:36.177Z,16.73
2023-02-11T08:29:08.602Z,15.20
2023-02-11T08:31:38.824Z,17.00
2023-02-11T08:34:07.176Z,15.90
2023-02-11T08:36:36.987Z,17.53
2023-02-11T08:39:18.740Z,16.70
2023-02-11T08:41:48.839Z,16.87
2023-02-11T08:44:16.748Z,15.47
2023-02-11T08:46:44.477Z,16.37
2023-02-11T08:49:12.316Z,17.00
2023-02-11T08:51:40.027Z,15.53
2023-02-11T08:54:10.098Z,15.20
2023-02-11T08:56:38.995Z,17.00
2023-02-11T08:59:07.081Z,15.60
2023-02-11T09:01:34.984Z,15.70
2023-02-11T09:04:02.838Z,16.00
2023-02-11T09:06:31.106Z,15.73
2023-02-11T09:08:59.512Z,14.77
2023-02-11T09:11:31.496Z,13.80
2023-02-11T09:13:59.462Z,15.50
2023-02-11T09:16:30.020Z,14.50
2023-02-11T09:18:58.470Z,14.73
2023-02-11T09:21:26.268Z,14.43
2023-02-11T09:23:54.055Z,13.60
2023-02-11T09:26:24.519Z,14.03
2023-02-11T09:28:54.232Z,14.80
2023-02-11T09:31:24.584Z,15.13
2023-02-11T09:33:55.697Z,14.60
2023-02-11T09:36:26.136Z,14.90
2023-02-11T09:38:54.646Z,14.10
2023-02-11T09:41:36.723Z,14.80
2023-02-11T09:44:08.933Z,14.40
2023-02-11T09:46:38.686Z,15.93
2023-02-11T09:49:08.480Z,15.03
2023-02-11T09:51:41.491Z,13.87
2023-02-11T09:54:17.162Z,15.37
2023-02-11T09:56:44.975Z,14.30
2023-02-11T09:59:15.744Z,13.60
2023-02-11T10:01:49.424Z,13.37
2023-02-11T10:04:30.081Z,13.93
2023-02-11T10:07:03.325Z,13.70
2023-02-11T10:09:46.546Z,13.37
2023-02-11T10:12:36.165Z,13.50
2023-02-11T10:15:19.838Z,13.73
2023-02-11T10:18:03.014Z,14.00
2023-02-11T10:20:35.649Z,14.97
2023-02-11T10:23:11.739Z,14.40
2023-02-11T10:25:44.301Z,13.80
2023-02-11T10:28:15.719Z,14.57
2023-02-11T10:30:51.007Z,12.93
2023-02-11T10:33:26.613Z,12.93
2023-02-11T10:35:54.459Z,12.83
2023-02-11T10:38:22.649Z,11.83
2023-02-11T10:40:50.880Z,12.63
2023-02-11T10:43:22.379Z,11.90
2023-02-11T10:45:53.493Z,12.43
2023-02-11T10:48:42.917Z,13.33
2023-02-11T10:51:20.434Z,11.97
2023-02-11T10:53:50.376Z,12.53
2023-02-11T10:56:25.213Z,11.40
2023-02-11T10:58:59.086Z,10.87
2023-02-11T11:01:42.080Z,12.30
2023-02-11T11:04:35.559Z,11.90
2023-02-11T11:07:19.724Z,11.27
2023-02-11T11:09:53.177Z,11.40
2023-02-11T11:12:34.730Z,11.93
2023-02-11T11:15:13.551Z,12.17
2023-02-11T11:17:42.723Z,12.00
2023-02-11T11:20:28.505Z,10.97
2023-02-11T11:23:16.614Z,11.47
2023-02-11T11:25:46.408Z,10.70
2023-02-11T11:28:25.252Z,11.23
2023-02-11T11:30:55.012Z,10.93
2023-02-11T11:33:27.358Z,10.87
2023-02-11T11:36:02.559Z,10.93
2023-02-11T11:38:31.936Z,10.87
2023-02-11T11:41:23.876Z,9.73
2023-02-11T11:43:57.486Z,10.77
2023-02-11T11:46:27.817Z,9.90
2023-02-11T11:49:16.040Z,10.63
2023-02-11T11:51:50.850Z,9.60
2023-02-11T11:54:21.448Z,9.67
2023-02-11T11:56:55.822Z,10.10
2023-02-11T11:59:23.855Z,9.80
2023-02-11T12:02:19.363Z,9.40
2023-02-11T12:05:05.772Z,9.43
2023-02-11T12:07:45.247Z,8.70
2023-02-11T12:10:29.037Z,8.30
2023-02-11T12:13:05.112Z,8.47
2023-02-11T12:15:37.567Z,9.27
2023-02-11T12:18:28.566Z,9.83
2023-02-11T12:21:18.866Z,8.67
2023-02-11T12:24:03.385Z,8.67
2023-02-11T12:26:41.009Z,8.60
2023-02-11T12:29:20.782Z,8.10
2023-02-11T12:32:07.151Z,8.73
2023-02-11T12:35:12.213Z,8.33
2023-02-11T12:37:57.886Z,8.10
2023-02-11T12:40:43.685Z,7.70
2023-02-11T12:43:21.462Z,7.67
2023-02-11T12:46:03.227Z,8.00
2023-02-11T12:48:56.688Z,7.17
2023-02-11T12:51:38.988Z,7.30
2023-02-11T12:54:20.892Z,7.40
2023-02-11T12:56:55.653Z,6.73
2023-02-11T12:59:39.498Z,6.80
2023-02-11T13:02:19.995Z,6.43
2023-02-11T13:04:53.213Z,5.77
2023-02-11T13:07:27.009Z,6.00
2023-02-11T13:10:02.099Z,5.53
2023-02-11T13:12:50.999Z,5.20
2023-02-11T13:15:19.275Z,5.40
2023-02-11T13:17:55.978Z,4.80
2023-02-11T13:20:36.168Z,4.70
2023-02-11T13:23:12.772Z,5.17
2023-02-11T13:25:47.438Z,4.90
2023-02-11T13:28:41.439Z,4.40
2023-02-11T13:31:12.704Z,4.20
2023-02-11T13:33:43.062Z,4.03
2023-02-11T13:36:20.053Z,4.63
2023-02-11T13:38:56.898Z,4.30
2023-02-11T13:41:30.011Z,4.10
2023-02-11T13:44:00.646Z,4.03
2023-02-11T13:46:31.521Z,3.90
2023-02-11T13:48:59.527Z,3.93
2023-02-11T13:51:38.655Z,4.00
2023-02-11T13:54:08.740Z,4.03
2023-02-11T13:56:40.574Z,5.77
2023-02-11T13:59:46.862Z,4.83
2023-02-11T14:02:42.699Z,5.03
2023-02-11T14:05:44.503Z,5.30
2023-02-11T14:08:41.499Z,4.43
2023-02-11T14:11:31.399Z,5.00
2023-02-11T14:14:31.716Z,5.60
2023-02-11T14:17:31.077Z,5.80
2023-02-11T14:20:00.399Z,5.97
2023-02-11T14:22:31.702Z,5.97
2023-02-11T14:25:01.789Z,6.70
2023-02-11T14:27:38.567Z,5.60
2023-02-11T14:30:31.414Z,5.80
2023-02-11T14:33:26.222Z,5.47
2023-02-11T14:36:03.708Z,5.77
2023-02-11T14:38:44.972Z,6.30
2023-02-11T14:41:22.840Z,6.90
2023-02-11T14:43:54.340Z,5.67
2023-02-11T14:46:25.543Z,5.83
2023-02-11T14:48:56.367Z,5.93
2023-02-11T14:51:26.766Z,5.53
2023-02-11T14:54:00.680Z,6.00
2023-02-11T14:56:31.044Z,6.23
2023-02-11T14:58:59.606Z,6.93
2023-02-11T15:01:31.915Z,8.17
2023-02-11T15:04:01.373Z,6.87
2023-02-11T15:06:32.733Z,6.87
2023-02-11T15:09:03.587Z,7.03
2023-02-11T15:11:35.016Z,6.37
2023-02-11T15:14:09.785Z,6.60
2023-02-11T15:16:43.892Z,6.83
2023-02-11T15:19:21.558Z,6.27
2023-02-11T15:21:50.662Z,6.67
2023-02-11T15:24:27.292Z,7.60
2023-02-11T15:26:59.536Z,6.87
2023-02-11T15:29:35.551Z,7.13
2023-02-11T15:32:13.530Z,7.13
2023-02-11T15:34:41.808Z,6.40
2023-02-11T15:37:14.382Z,6.90
2023-02-11T15:39:43.124Z,6.60
2023-02-11T15:42:21.396Z,6.70
2023-02-11T15:44:56.492Z,8.07
2023-02-11T15:47:25.992Z,6.90
2023-02-11T15:49:53.731Z,7.80
2023-02-11T15:52:27.472Z,7.73
2023-02-11T15:54:56.982Z,6.70
2023-02-11T15:57:24.779Z,8.03
2023-02-11T15:59:56.280Z,7.03
2023-02-11T16:02:32.053Z,6.80
2023-02-11T16:05:08.686Z,7.90
2023-02-11T16:07:42.483Z,7.57
2023-02-11T16:10:26.447Z,7.33
2023-02-11T16:12:57.883Z,8.07
2023-02-11T16:15:44.084Z,7.27
2023-02-11T16:18:36.835Z,8.07
2023-02-11T16:21:07.714Z,7.27
2023-02-11T16:23:38.822Z,8.33
2023-02-11T16:26:12.375Z,8.07
2023-02-11T16:28:41.064Z,6.73
2023-02-11T16:31:09.687Z,7.07
2023-02-11T16:33:39.000Z,7.63
2023-02-11T16:36:13.337Z,8.90
2023-02-11T16:38:41.332Z,8.80
2023-02-11T16:41:11.768Z,7.67
2023-02-11T16:43:40.001Z,8.37
2023-02-11T16:46:09.329Z,8.30
2023-02-11T16:48:39.056Z,8.10
2023-02-11T16:51:09.205Z,9.13
2023-02-11T16:53:37.019Z,7.23
2023-02-11T16:56:05.326Z,8.73
2023-02-11T16:58:33.737Z,8.53
2023-02-11T17:01:01.885Z,8.73
2023-02-11T17:03:30.245Z,9.17
2023-02-11T17:06:02.882Z,8.13
2023-02-11T17:08:30.854Z,8.47
2023-02-11T17:10:58.698Z,10.30
2023-02-11T17:13:26.693Z,9.43
2023-02-11T17:15:55.150Z,9.83
2023-02-11T17:18:23.062Z,8.80
2023-02-11T17:20:50.964Z,8.47
2023-02-11T17:23:20.052Z,9.23
2023-02-11T17:25:48.281Z,9.37
2023-02-11T17:28:16.082Z,8.73
2023-02-11T17:30:44.178Z,10.23
2023-02-11T17:33:11.920Z,10.70
2023-02-11T17:35:41.572Z,9.73
2023-02-11T17:38:09.384Z,9.67
2023-02-11T17:40:38.606Z,9.00
2023-02-11T17:43:06.552Z,9.03
2023-02-11T17:45:34.469Z,8.43
2023-02-11T17:48:02.423Z,9.97
2023-02-11T17:50:30.347Z,10.43
2023-02-11T17:52:58.340Z,9.47
2023-02-11T17:55:26.140Z,10.80
2023-02-11T17:57:55.471Z,9.73
2023-02-11T18:00:23.664Z,11.03
2023-02-11T18:02:51.582Z,9.87
2023-02-11T18:05:19.678Z,11.03
2023-02-11T18:07:48.444Z,10.70
2023-02-11T18:10:16.318Z,12.37
2023-02-11T18:12:44.309Z,12.10
2023-02-11T18:15:13.890Z,12.00
2023-02-11T18:17:41.689Z,11.73
2023-02-11T18:20:10.422Z,12.17
2023-02-11T18:22:40.897Z,11.90
2023-02-11T18:25:09.431Z,11.33
2023-02-11T18:27:37.306Z,11.67
2023-02-11T18:30:06.211Z,11.47
2023-02-11T18:32:35.469Z,11.83
2023-02-11T18:35:03.520Z,12.20
2023-02-11T18:37:31.282Z,10.83
2023-02-11T18:39:59.480Z,12.27
2023-02-11T18:42:28.033Z,12.80
2023-02-11T18:44:56.006Z,12.23
2023-02-11T18:47:23.859Z,12.07
2023-02-11T18:49:53.044Z,11.33
2023-02-11T18:52:20.803Z,12.57
2023-02-11T18:54:51.366Z,12.40
2023-02-11T18:57:19.142Z,13.27
2023-02-11T18:59:46.898Z,12.93
2023-02-11T19:02:14.699Z,12.27
2023-02-11T19:04:42.416Z,13.37
2023-02-11T19:07:11.767Z,12.87
2023-02-11T19:09:39.520Z,11.83
2023-02-11T19:12:08.687Z,13.63
2023-02-11T19:14:38.617Z,13.13
2023-02-11T19:17:10.810Z,13.70
2023-02-11T19:19:38.630Z,12.83
2023-02-11T19:22:10.246Z,12.33
2023-02-11T19:24:40.059Z,12.07
2023-02-11T19:27:07.882Z,11.43
2023-02-11T19:29:35.627Z,12.23
2023-02-11T19:32:03.851Z,12.73
2023-02-11T19:34:31.618Z,13.60
2023-02-11T19:37:01.597Z,12.30
2023-02-11T19:39:29.449Z,14.17
2023-02-11T19:41:58.587Z,11.47
2023-02-11T19:44:26.542Z,12.90
2023-02-11T19:46:54.799Z,13.30
2023-02-11T19:49:25.847Z,12.20
2023-02-11T19:51:55.380Z,12.37
2023-02-11T19:54:23.362Z,12.20
2023-02-11T19:56:51.070Z,10.80
2023-02-11T19:59:21.028Z,11.90
2023-02-11T20:01:49.146Z,11.70
2023-02-11T20:04:17.898Z,11.00
2023-02-11T20:06:48.091Z,11.63
2023-02-11T20:09:17.626Z,10.90
2023-02-11T20:11:45.467Z,12.93
2023-02-11T20:14:14.812Z,12.40
2023-02-11T20:16:49.081Z,12.30
2023-02-11T20:19:19.361Z,12.90
2023-02-11T20:21:48.728Z,11.47
2023-02-11T20:24:16.921Z,12.23
2023-02-11T20:26:46.824Z,12.37
2023-02-11T20:29:15.375Z,12.87
2023-02-11T20:31:45.028Z,13.20
2023-02-11T20:34:12.993Z,12.87
2023-02-11T20:36:41.062Z,12.13
2023-02-11T20:39:09.541Z,12.47
2023-02-11T20:41:39.848Z,12.73
2023-02-11T20:44:09.723Z,11.47
2023-02-11T20:46:40.032Z,12.07
2023-02-11T20:49:10.799Z,11.80
2023-02-11T20:51:38.789Z,12.63
2023-02-11T20:54:07.158Z,13.30
2023-02-11T20:56:37.616Z,13.60
2023-02-11T20:59:06.670Z,12.83
2023-02-11T21:01:36.215Z,12.63
2023-02-11T21:04:05.980Z,13.13
2023-02-11T21:06:37.676Z,13.10
2023-02-11T21:09:07.203Z,13.77
2023-02-11T21:11:34.976Z,14.23
2023-02-11T21:14:02.970Z,14.17
2023-02-11T21:16:30.812Z,15.13
2023-02-11T21:18:58.664Z,14.73
2023-02-11T21:21:36.198Z,14.03
2023-02-11T21:24:05.705Z,13.83
2023-02-11T21:26:35.395Z,14.73
2023-02-11T21:29:03.638Z,14.13
2023-02-11T21:31:33.506Z,16.77
2023-02-11T21:34:01.493Z,13.33
2023-02-11T21:36:30.582Z,15.20
2023-02-11T21:38:58.809Z,15.03
2023-02-11T21:41:28.139Z,14.10
2023-02-11T21:43:56.052Z,13.53
2023-02-11T21:46:24.118Z,13.77
2023-02-11T21:48:52.279Z,14.20
2023-02-11T21:51:21.931Z,13.73
2023-02-11T21:53:53.700Z,15.13
2023-02-11T21:56:21.520Z,13.30
2023-02-11T21:58:53.459Z,14.83
2023-02-11T22:01:23.610Z,13.43
2023-02-11T22:03:51.655Z,13.80
2023-02-11T22:06:22.239Z,13.23
2023-02-11T22:08:50.340Z,13.40
2023-02-11T22:11:18.482Z,13.03
2023-02-11T22:13:46.860Z,12.97
2023-02-11T22:16:18.101Z,13.37
2023-02-11T22:18:46.519Z,13.57
2023-02-11T22:21:16.944Z,16.17
2023-02-11T22:23:45.584Z,13.43
2023-02-11T22:26:16.792Z,13.70
2023-02-11T22:28:45.134Z,13.43
2023-02-11T22:31:15.694Z,12.57
2023-02-11T22:33:44.005Z,13.23
2023-02-11T22:36:16.536Z,13.43
2023-02-11T22:38:47.310Z,12.33
2023-02-11T22:41:16.209Z,13.73
2023-02-11T22:43:45.055Z,12.67
2023-02-11T22:46:16.256Z,13.30
2023-02-11T22:48:44.513Z,12.73
2023-02-11T22:51:14.132Z,13.37
2023-02-11T22:53:42.165Z,13.77
2023-02-11T22:56:15.211Z,13.77
2023-02-11T22:58:43.887Z,14.60
2023-02-11T23:01:12.602Z,13.87
2023-02-11T23:03:42.228Z,14.77
2023-02-11T23:06:10.504Z,11.97
2023-02-11T23:08:40.599Z,15.73
2023-02-11T23:11:11.401Z,14.63
2023-02-11T23:13:41.410Z,14.03
2023-02-11T23:16:11.060Z,15.37
2023-02-11T23:18:43.869Z,13.80
2023-02-11T23:21:15.821Z,14.27
2023-02-11T23:23:43.955Z,13.10
2023-02-11T23:26:12.595Z,14.30
2023-02-11T23:28:40.936Z,12.33
2023-02-11T23:31:17.194Z,13.20
2023-02-11T23:33:47.459Z,11.83
2023-02-11T23:36:16.965Z,11.53
2023-02-11T23:38:44.948Z,11.43
2023-02-11T23:41:13.127Z,12.67
2023-02-11T23:43:41.174Z,10.77
2023-02-11T23:46:09.656Z,12.03
2023-02-11T23:48:37.860Z,11.23
2023-02-11T23:51:09.565Z,10.67
2023-02-11T23:53:37.695Z,10.27
2023-02-11T23:56:09.092Z,10.13
2023-02-11T23:58:37.251Z,8.97
